sensor_id;sensor_type;location;lat;lon;timestamp;temperature;humidity
47961;DHT22;33721;48.852;9.936;2022-08-03T00:01:38;18.30;99.90
47961;DHT22;33721;48.852;9.936;2022-08-03T00:04:05;18.30;99.90
47961;DHT22;33721;48.852;9.936;2022-08-03T00:06:31;18.40;99.90
47961;DHT22;33721;48.852;9.936;2022-08-03T00:08:57;18.40;99.90
47961;DHT22;33721;48.852;9.936;2022-08-03T00:11:23;18.20;99.90
47961;DHT22;33721;48.852;9.936;2022-08-03T00:13:49;18.10;99.90
47961;DHT22;33721;48.852;9.936;2022-08-03T00:16:14;18.00;99.90
47961;DHT22;33721;48.852;9.936;2022-08-03T00:18:40;17.90;99.90
47961;DHT22;33721;48.852;9.936;2022-08-03T00:21:06;17.80;99.90
47961;DHT22;33721;48.852;9.936;2022-08-03T00:23:33;17.70;99.90
47961;DHT22;33721;48.852;9.936;2022-08-03T00:25:59;17.60;99.90
47961;DHT22;33721;48.852;9.936;2022-08-03T00:28:25;17.60;99.90
47961;DHT22;33721;48.852;9.936;2022-08-03T00:30:50;17.60;99.90
47961;DHT22;33721;48.852;9.936;2022-08-03T00:33:16;17.50;99.90
47961;DHT22;33721;48.852;9.936;2022-08-03T00:35:42;17.50;99.90
47961;DHT22;33721;48.852;9.936;2022-08-03T00:38:07;17.60;99.90
47961;DHT22;33721;48.852;9.936;2022-08-03T00:40:33;17.50;99.90
47961;DHT22;33721;48.852;9.936;2022-08-03T00:43:02;17.50;99.90
47961;DHT22;33721;48.852;9.936;2022-08-03T00:45:39;17.50;99.90
47961;DHT22;33721;48.852;9.936;2022-08-03T00:48:08;17.50;99.90
47961;DHT22;33721;48.852;9.936;2022-08-03T00:50:35;17.40;99.90
47961;DHT22;33721;48.852;9.936;2022-08-03T00:53:03;17.20;99.90
47961;DHT22;33721;48.852;9.936;2022-08-03T00:55:29;17.10;99.90
47961;DHT22;33721;48.852;9.936;2022-08-03T00:57:55;17.10;99.90
47961;DHT22;33721;48.852;9.936;2022-08-03T01:00:23;17.10;99.90
47961;DHT22;33721;48.852;9.936;2022-08-03T01:02:50;17.20;99.90
47961;DHT22;33721;48.852;9.936;2022-08-03T01:05:16;17.30;99.90
47961;DHT22;33721;48.852;9.936;2022-08-03T01:07:50;17.20;99.90
47961;DHT22;33721;48.852;9.936;2022-08-03T01:16:11;16.90;99.90
47961;DHT22;33721;48.852;9.936;2022-08-03T01:22:04;16.90;99.90
47961;DHT22;33721;48.852;9.936;2022-08-03T01:24:49;16.80;99.90
47961;DHT22;33721;48.852;9.936;2022-08-03T01:27:36;16.70;99.90
47961;DHT22;33721;48.852;9.936;2022-08-03T01:30:09;16.80;99.90
47961;DHT22;33721;48.852;9.936;2022-08-03T01:32:54;16.90;99.90
47961;DHT22;33721;48.852;9.936;2022-08-03T01:35:33;17.10;99.90
47961;DHT22;33721;48.852;9.936;2022-08-03T01:38:07;17.10;99.90
47961;DHT22;33721;48.852;9.936;2022-08-03T01:40:35;17.10;99.90
47961;DHT22;33721;48.852;9.936;2022-08-03T01:43:03;16.90;99.90
47961;DHT22;33721;48.852;9.936;2022-08-03T01:45:31;16.80;99.90
47961;DHT22;33721;48.852;9.936;2022-08-03T01:47:58;16.70;99.90
47961;DHT22;33721;48.852;9.936;2022-08-03T01:50:28;16.70;99.90
47961;DHT22;33721;48.852;9.936;2022-08-03T01:52:55;16.70;99.90
47961;DHT22;33721;48.852;9.936;2022-08-03T01:55:22;16.60;99.90
47961;DHT22;33721;48.852;9.936;2022-08-03T01:57:50;16.50;99.90
47961;DHT22;33721;48.852;9.936;2022-08-03T02:00:17;16.40;99.90
47961;DHT22;33721;48.852;9.936;2022-08-03T02:02:46;16.40;99.90
47961;DHT22;33721;48.852;9.936;2022-08-03T02:05:13;16.50;99.90
47961;DHT22;33721;48.852;9.936;2022-08-03T02:07:41;16.40;99.90
47961;DHT22;33721;48.852;9.936;2022-08-03T02:10:08;16.50;99.90
47961;DHT22;33721;48.852;9.936;2022-08-03T02:12:37;16.30;99.90
47961;DHT22;33721;48.852;9.936;2022-08-03T02:15:04;16.20;99.90
47961;DHT22;33721;48.852;9.936;2022-08-03T02:17:32;16.20;99.90
47961;DHT22;33721;48.852;9.936;2022-08-03T02:19:59;16.20;99.90
47961;DHT22;33721;48.852;9.936;2022-08-03T02:22:26;16.30;99.90
47961;DHT22;33721;48.852;9.936;2022-08-03T02:24:52;16.20;99.90
47961;DHT22;33721;48.852;9.936;2022-08-03T02:27:26;16.10;99.90
47961;DHT22;33721;48.852;9.936;2022-08-03T02:30:05;16.10;99.90
47961;DHT22;33721;48.852;9.936;2022-08-03T02:32:35;16.00;99.90
47961;DHT22;33721;48.852;9.936;2022-08-03T02:35:04;16.00;99.90
47961;DHT22;33721;48.852;9.936;2022-08-03T02:37:33;16.00;99.90
47961;DHT22;33721;48.852;9.936;2022-08-03T02:40:04;15.90;99.90
47961;DHT22;33721;48.852;9.936;2022-08-03T02:42:32;15.90;99.90
47961;DHT22;33721;48.852;9.936;2022-08-03T02:45:01;15.90;99.90
47961;DHT22;33721;48.852;9.936;2022-08-03T02:47:28;15.90;99.90
47961;DHT22;33721;48.852;9.936;2022-08-03T02:49:57;16.00;99.90
47961;DHT22;33721;48.852;9.936;2022-08-03T02:52:27;16.10;99.90
47961;DHT22;33721;48.852;9.936;2022-08-03T02:54:56;16.10;99.90
47961;DHT22;33721;48.852;9.936;2022-08-03T02:57:24;16.10;99.90
47961;DHT22;33721;48.852;9.936;2022-08-03T02:59:52;16.00;99.90
47961;DHT22;33721;48.852;9.936;2022-08-03T03:02:18;15.90;99.90
47961;DHT22;33721;48.852;9.936;2022-08-03T03:04:45;15.90;99.90
47961;DHT22;33721;48.852;9.936;2022-08-03T03:07:16;15.90;99.90
47961;DHT22;33721;48.852;9.936;2022-08-03T03:09:42;16.00;99.90
47961;DHT22;33721;48.852;9.936;2022-08-03T03:12:09;15.90;99.90
47961;DHT22;33721;48.852;9.936;2022-08-03T03:14:36;15.90;99.90
47961;DHT22;33721;48.852;9.936;2022-08-03T03:17:02;15.90;99.90
47961;DHT22;33721;48.852;9.936;2022-08-03T03:19:30;15.80;99.90
47961;DHT22;33721;48.852;9.936;2022-08-03T03:21:59;15.80;99.90
47961;DHT22;33721;48.852;9.936;2022-08-03T03:24:27;15.80;99.90
47961;DHT22;33721;48.852;9.936;2022-08-03T03:26:53;15.70;99.90
47961;DHT22;33721;48.852;9.936;2022-08-03T03:29:20;15.80;99.90
47961;DHT22;33721;48.852;9.936;2022-08-03T03:31:46;15.80;99.90
47961;DHT22;33721;48.852;9.936;2022-08-03T03:34:12;15.90;99.90
47961;DHT22;33721;48.852;9.936;2022-08-03T03:36:38;15.80;99.90
47961;DHT22;33721;48.852;9.936;2022-08-03T03:39:03;15.80;99.90
47961;DHT22;33721;48.852;9.936;2022-08-03T03:41:29;15.70;99.90
47961;DHT22;33721;48.852;9.936;2022-08-03T03:43:55;15.70;99.90
47961;DHT22;33721;48.852;9.936;2022-08-03T03:46:21;15.70;99.90
47961;DHT22;33721;48.852;9.936;2022-08-03T03:48:47;15.70;99.90
47961;DHT22;33721;48.852;9.936;2022-08-03T03:51:13;15.70;99.90
47961;DHT22;33721;48.852;9.936;2022-08-03T03:53:39;15.60;99.90
47961;DHT22;33721;48.852;9.936;2022-08-03T03:56:05;15.30;99.90
47961;DHT22;33721;48.852;9.936;2022-08-03T03:58:32;15.20;99.90
47961;DHT22;33721;48.852;9.936;2022-08-03T04:00:58;15.20;99.90
47961;DHT22;33721;48.852;9.936;2022-08-03T04:03:24;15.10;99.90
47961;DHT22;33721;48.852;9.936;2022-08-03T04:05:49;15.20;99.90
47961;DHT22;33721;48.852;9.936;2022-08-03T04:08:34;15.20;99.90
47961;DHT22;33721;48.852;9.936;2022-08-03T04:11:25;15.30;99.90
47961;DHT22;33721;48.852;9.936;2022-08-03T04:14:26;15.30;99.90
47961;DHT22;33721;48.852;9.936;2022-08-03T04:16:55;15.30;99.90
47961;DHT22;33721;48.852;9.936;2022-08-03T04:19:42;15.30;99.90
47961;DHT22;33721;48.852;9.936;2022-08-03T04:22:11;15.30;99.90
47961;DHT22;33721;48.852;9.936;2022-08-03T04:24:45;15.40;99.90
47961;DHT22;33721;48.852;9.936;2022-08-03T04:27:14;15.50;99.90
47961;DHT22;33721;48.852;9.936;2022-08-03T04:29:45;15.50;99.90
47961;DHT22;33721;48.852;9.936;2022-08-03T04:32:11;15.70;99.90
47961;DHT22;33721;48.852;9.936;2022-08-03T04:34:38;15.70;99.90
47961;DHT22;33721;48.852;9.936;2022-08-03T04:37:10;15.90;99.90
47961;DHT22;33721;48.852;9.936;2022-08-03T04:39:38;16.00;99.90
47961;DHT22;33721;48.852;9.936;2022-08-03T04:42:07;16.20;99.90
47961;DHT22;33721;48.852;9.936;2022-08-03T04:44:41;16.30;99.90
47961;DHT22;33721;48.852;9.936;2022-08-03T04:47:08;16.40;99.90
47961;DHT22;33721;48.852;9.936;2022-08-03T04:49:36;16.30;99.90
47961;DHT22;33721;48.852;9.936;2022-08-03T04:52:02;16.50;99.90
47961;DHT22;33721;48.852;9.936;2022-08-03T04:54:29;16.60;99.90
47961;DHT22;33721;48.852;9.936;2022-08-03T04:56:55;16.80;99.90
47961;DHT22;33721;48.852;9.936;2022-08-03T04:59:20;16.90;99.90
47961;DHT22;33721;48.852;9.936;2022-08-03T05:01:46;16.90;99.90
47961;DHT22;33721;48.852;9.936;2022-08-03T05:04:12;16.90;99.90
47961;DHT22;33721;48.852;9.936;2022-08-03T05:06:37;16.90;99.90
47961;DHT22;33721;48.852;9.936;2022-08-03T05:09:03;17.00;99.90
47961;DHT22;33721;48.852;9.936;2022-08-03T05:11:29;17.20;99.90
47961;DHT22;33721;48.852;9.936;2022-08-03T05:13:55;17.30;99.90
47961;DHT22;33721;48.852;9.936;2022-08-03T05:16:20;17.50;99.90
47961;DHT22;33721;48.852;9.936;2022-08-03T05:18:46;17.60;99.90
47961;DHT22;33721;48.852;9.936;2022-08-03T05:21:12;17.70;99.90
47961;DHT22;33721;48.852;9.936;2022-08-03T05:23:41;17.70;99.90
47961;DHT22;33721;48.852;9.936;2022-08-03T05:26:07;17.80;99.90
47961;DHT22;33721;48.852;9.936;2022-08-03T05:28:33;17.90;99.90
47961;DHT22;33721;48.852;9.936;2022-08-03T05:30:58;17.80;99.90
47961;DHT22;33721;48.852;9.936;2022-08-03T05:33:24;17.90;99.90
47961;DHT22;33721;48.852;9.936;2022-08-03T05:35:50;17.90;99.90
47961;DHT22;33721;48.852;9.936;2022-08-03T05:38:15;18.00;99.90
47961;DHT22;33721;48.852;9.936;2022-08-03T05:40:41;18.10;99.90
47961;DHT22;33721;48.852;9.936;2022-08-03T05:43:07;18.30;99.90
47961;DHT22;33721;48.852;9.936;2022-08-03T05:45:32;18.30;99.90
47961;DHT22;33721;48.852;9.936;2022-08-03T05:47:58;18.50;99.90
47961;DHT22;33721;48.852;9.936;2022-08-03T05:50:24;18.70;99.90
47961;DHT22;33721;48.852;9.936;2022-08-03T05:52:49;18.80;99.90
47961;DHT22;33721;48.852;9.936;2022-08-03T05:55:15;18.90;99.90
47961;DHT22;33721;48.852;9.936;2022-08-03T05:57:41;18.90;99.90
47961;DHT22;33721;48.852;9.936;2022-08-03T06:00:09;19.00;99.90
47961;DHT22;33721;48.852;9.936;2022-08-03T06:02:36;19.10;99.90
47961;DHT22;33721;48.852;9.936;2022-08-03T06:05:01;19.30;99.90
47961;DHT22;33721;48.852;9.936;2022-08-03T06:07:27;19.30;99.90
47961;DHT22;33721;48.852;9.936;2022-08-03T06:09:53;19.50;99.90
47961;DHT22;33721;48.852;9.936;2022-08-03T06:12:19;19.80;99.90
47961;DHT22;33721;48.852;9.936;2022-08-03T06:14:44;20.00;99.90
47961;DHT22;33721;48.852;9.936;2022-08-03T06:17:10;20.20;99.90
47961;DHT22;33721;48.852;9.936;2022-08-03T06:19:36;20.40;99.90
47961;DHT22;33721;48.852;9.936;2022-08-03T06:22:01;20.50;99.90
47961;DHT22;33721;48.852;9.936;2022-08-03T06:24:27;20.60;99.90
47961;DHT22;33721;48.852;9.936;2022-08-03T06:26:53;20.70;99.90
47961;DHT22;33721;48.852;9.936;2022-08-03T06:29:19;20.80;99.90
47961;DHT22;33721;48.852;9.936;2022-08-03T06:31:44;21.10;99.90
47961;DHT22;33721;48.852;9.936;2022-08-03T06:34:10;21.30;99.90
47961;DHT22;33721;48.852;9.936;2022-08-03T06:36:36;21.50;99.90
47961;DHT22;33721;48.852;9.936;2022-08-03T06:39:02;21.70;99.90
47961;DHT22;33721;48.852;9.936;2022-08-03T06:41:28;22.00;99.90
47961;DHT22;33721;48.852;9.936;2022-08-03T06:43:54;22.20;99.90
47961;DHT22;33721;48.852;9.936;2022-08-03T06:46:20;22.40;99.90
47961;DHT22;33721;48.852;9.936;2022-08-03T06:48:46;22.60;99.90
47961;DHT22;33721;48.852;9.936;2022-08-03T06:51:12;22.90;99.90
47961;DHT22;33721;48.852;9.936;2022-08-03T06:53:38;23.10;99.90
47961;DHT22;33721;48.852;9.936;2022-08-03T06:56:04;23.20;99.90
47961;DHT22;33721;48.852;9.936;2022-08-03T06:58:30;23.30;99.90
47961;DHT22;33721;48.852;9.936;2022-08-03T07:00:56;23.50;99.90
47961;DHT22;33721;48.852;9.936;2022-08-03T07:03:21;23.70;99.90
47961;DHT22;33721;48.852;9.936;2022-08-03T07:05:48;23.80;99.90
47961;DHT22;33721;48.852;9.936;2022-08-03T07:08:15;23.90;99.90
47961;DHT22;33721;48.852;9.936;2022-08-03T07:10:41;24.10;99.90
47961;DHT22;33721;48.852;9.936;2022-08-03T07:13:06;24.30;99.90
47961;DHT22;33721;48.852;9.936;2022-08-03T07:15:33;24.50;99.90
47961;DHT22;33721;48.852;9.936;2022-08-03T07:17:59;24.70;99.90
47961;DHT22;33721;48.852;9.936;2022-08-03T07:20:24;24.90;99.90
47961;DHT22;33721;48.852;9.936;2022-08-03T07:22:50;25.10;99.90
47961;DHT22;33721;48.852;9.936;2022-08-03T07:25:16;25.30;99.90
47961;DHT22;33721;48.852;9.936;2022-08-03T07:27:46;25.50;99.90
47961;DHT22;33721;48.852;9.936;2022-08-03T07:30:12;25.60;99.90
47961;DHT22;33721;48.852;9.936;2022-08-03T07:32:38;25.90;99.90
47961;DHT22;33721;48.852;9.936;2022-08-03T07:35:05;26.10;99.90
47961;DHT22;33721;48.852;9.936;2022-08-03T07:37:31;26.30;98.80
47961;DHT22;33721;48.852;9.936;2022-08-03T07:39:58;26.50;97.30
47961;DHT22;33721;48.852;9.936;2022-08-03T07:42:25;26.60;96.80
47961;DHT22;33721;48.852;9.936;2022-08-03T07:44:51;26.80;96.00
47961;DHT22;33721;48.852;9.936;2022-08-03T07:47:22;26.80;94.80
47961;DHT22;33721;48.852;9.936;2022-08-03T07:49:48;26.80;94.30
47961;DHT22;33721;48.852;9.936;2022-08-03T07:52:14;27.00;92.30
47961;DHT22;33721;48.852;9.936;2022-08-03T07:54:58;26.90;92.10
47961;DHT22;33721;48.852;9.936;2022-08-03T07:57:24;26.90;92.20
47961;DHT22;33721;48.852;9.936;2022-08-03T07:59:50;26.90;91.10
47961;DHT22;33721;48.852;9.936;2022-08-03T08:02:15;27.10;91.80
47961;DHT22;33721;48.852;9.936;2022-08-03T08:04:41;27.30;90.00
47961;DHT22;33721;48.852;9.936;2022-08-03T08:07:07;27.30;88.10
47961;DHT22;33721;48.852;9.936;2022-08-03T08:09:32;27.50;88.20
47961;DHT22;33721;48.852;9.936;2022-08-03T08:11:58;27.50;86.10
47961;DHT22;33721;48.852;9.936;2022-08-03T08:14:24;27.60;88.00
47961;DHT22;33721;48.852;9.936;2022-08-03T08:16:50;27.90;86.90
47961;DHT22;33721;48.852;9.936;2022-08-03T08:19:16;28.10;88.10
47961;DHT22;33721;48.852;9.936;2022-08-03T08:21:42;28.10;85.80
47961;DHT22;33721;48.852;9.936;2022-08-03T08:24:08;28.10;84.10
47961;DHT22;33721;48.852;9.936;2022-08-03T08:26:34;28.20;82.90
47961;DHT22;33721;48.852;9.936;2022-08-03T08:29:00;28.40;78.80
47961;DHT22;33721;48.852;9.936;2022-08-03T08:31:25;28.60;73.90
47961;DHT22;33721;48.852;9.936;2022-08-03T08:33:51;28.70;75.20
47961;DHT22;33721;48.852;9.936;2022-08-03T08:36:17;28.80;74.70
47961;DHT22;33721;48.852;9.936;2022-08-03T08:38:42;29.00;72.60
47961;DHT22;33721;48.852;9.936;2022-08-03T08:41:10;29.00;72.20
47961;DHT22;33721;48.852;9.936;2022-08-03T08:43:36;29.10;73.50
47961;DHT22;33721;48.852;9.936;2022-08-03T08:46:02;29.10;72.30
47961;DHT22;33721;48.852;9.936;2022-08-03T08:48:28;29.40;71.00
47961;DHT22;33721;48.852;9.936;2022-08-03T08:50:55;29.50;69.90
47961;DHT22;33721;48.852;9.936;2022-08-03T08:53:25;29.60;69.50
47961;DHT22;33721;48.852;9.936;2022-08-03T08:55:56;29.70;66.30
47961;DHT22;33721;48.852;9.936;2022-08-03T08:58:26;29.50;69.60
47961;DHT22;33721;48.852;9.936;2022-08-03T09:00:53;29.70;68.30
47961;DHT22;33721;48.852;9.936;2022-08-03T09:03:19;29.80;65.10
47961;DHT22;33721;48.852;9.936;2022-08-03T09:05:45;29.80;64.50
47961;DHT22;33721;48.852;9.936;2022-08-03T09:08:11;29.70;64.20
47961;DHT22;33721;48.852;9.936;2022-08-03T09:10:37;29.80;63.40
47961;DHT22;33721;48.852;9.936;2022-08-03T09:13:03;29.90;65.10
47961;DHT22;33721;48.852;9.936;2022-08-03T09:15:30;30.00;64.30
47961;DHT22;33721;48.852;9.936;2022-08-03T09:17:58;30.10;63.60
47961;DHT22;33721;48.852;9.936;2022-08-03T09:20:31;30.00;62.80
47961;DHT22;33721;48.852;9.936;2022-08-03T09:23:02;30.20;64.10
47961;DHT22;33721;48.852;9.936;2022-08-03T09:25:39;30.30;61.90
47961;DHT22;33721;48.852;9.936;2022-08-03T09:28:11;30.60;62.60
47961;DHT22;33721;48.852;9.936;2022-08-03T09:30:40;30.70;59.90
47961;DHT22;33721;48.852;9.936;2022-08-03T09:33:11;30.70;60.30
47961;DHT22;33721;48.852;9.936;2022-08-03T09:35:45;30.80;59.30
47961;DHT22;33721;48.852;9.936;2022-08-03T09:38:22;30.80;58.40
47961;DHT22;33721;48.852;9.936;2022-08-03T09:40:51;31.10;60.30
47961;DHT22;33721;48.852;9.936;2022-08-03T09:43:17;31.20;56.50
47961;DHT22;33721;48.852;9.936;2022-08-03T09:45:43;31.10;56.40
47961;DHT22;33721;48.852;9.936;2022-08-03T09:48:22;31.00;57.10
47961;DHT22;33721;48.852;9.936;2022-08-03T09:50:55;31.20;58.70
47961;DHT22;33721;48.852;9.936;2022-08-03T09:53:22;31.20;57.10
47961;DHT22;33721;48.852;9.936;2022-08-03T09:55:59;31.50;55.40
47961;DHT22;33721;48.852;9.936;2022-08-03T09:58:26;31.50;55.80
47961;DHT22;33721;48.852;9.936;2022-08-03T10:03:19;31.70;54.70
47961;DHT22;33721;48.852;9.936;2022-08-03T10:05:45;31.90;54.90
47961;DHT22;33721;48.852;9.936;2022-08-03T10:08:15;32.10;54.80
47961;DHT22;33721;48.852;9.936;2022-08-03T10:10:47;32.10;53.60
47961;DHT22;33721;48.852;9.936;2022-08-03T10:13:14;32.10;54.10
47961;DHT22;33721;48.852;9.936;2022-08-03T10:15:41;32.20;53.20
47961;DHT22;33721;48.852;9.936;2022-08-03T10:18:06;32.20;52.00
47961;DHT22;33721;48.852;9.936;2022-08-03T10:20:48;32.10;51.70
47961;DHT22;33721;48.852;9.936;2022-08-03T10:23:16;32.10;52.70
47961;DHT22;33721;48.852;9.936;2022-08-03T10:25:43;31.90;51.70
47961;DHT22;33721;48.852;9.936;2022-08-03T10:28:16;31.90;53.40
47961;DHT22;33721;48.852;9.936;2022-08-03T10:30:46;32.30;54.00
47961;DHT22;33721;48.852;9.936;2022-08-03T10:33:24;32.30;52.10
47961;DHT22;33721;48.852;9.936;2022-08-03T10:35:53;32.00;50.90
47961;DHT22;33721;48.852;9.936;2022-08-03T10:38:36;31.70;51.40
47961;DHT22;33721;48.852;9.936;2022-08-03T10:41:02;31.90;52.80
47961;DHT22;33721;48.852;9.936;2022-08-03T10:46:05;31.90;51.20
47961;DHT22;33721;48.852;9.936;2022-08-03T10:48:33;31.90;52.10
47961;DHT22;33721;48.852;9.936;2022-08-03T10:51:00;31.60;52.30
47961;DHT22;33721;48.852;9.936;2022-08-03T10:53:44;31.50;54.40
47961;DHT22;33721;48.852;9.936;2022-08-03T10:59:17;32.00;52.60
47961;DHT22;33721;48.852;9.936;2022-08-03T11:01:54;32.30;51.80
47961;DHT22;33721;48.852;9.936;2022-08-03T11:04:23;32.30;52.30
47961;DHT22;33721;48.852;9.936;2022-08-03T11:09:41;32.20;53.80
47961;DHT22;33721;48.852;9.936;2022-08-03T11:12:27;32.50;51.10
47961;DHT22;33721;48.852;9.936;2022-08-03T11:14:55;32.20;50.30
47961;DHT22;33721;48.852;9.936;2022-08-03T11:17:22;32.40;49.70
47961;DHT22;33721;48.852;9.936;2022-08-03T11:19:50;32.70;51.10
47961;DHT22;33721;48.852;9.936;2022-08-03T11:22:16;32.70;49.80
47961;DHT22;33721;48.852;9.936;2022-08-03T11:29:59;32.10;49.70
47961;DHT22;33721;48.852;9.936;2022-08-03T11:46:07;32.90;50.40
47961;DHT22;33721;48.852;9.936;2022-08-03T11:48:44;32.60;50.60
47961;DHT22;33721;48.852;9.936;2022-08-03T11:51:24;32.30;49.10
47961;DHT22;33721;48.852;9.936;2022-08-03T11:54:02;32.50;49.80
47961;DHT22;33721;48.852;9.936;2022-08-03T11:56:46;32.60;47.60
47961;DHT22;33721;48.852;9.936;2022-08-03T11:59:11;33.00;48.80
47961;DHT22;33721;48.852;9.936;2022-08-03T12:01:37;33.40;50.40
47961;DHT22;33721;48.852;9.936;2022-08-03T12:04:05;33.50;49.70
47961;DHT22;33721;48.852;9.936;2022-08-03T12:06:31;33.70;48.30
47961;DHT22;33721;48.852;9.936;2022-08-03T12:09:16;33.50;46.60
47961;DHT22;33721;48.852;9.936;2022-08-03T12:11:46;33.30;46.30
47961;DHT22;33721;48.852;9.936;2022-08-03T12:14:15;32.90;46.60
47961;DHT22;33721;48.852;9.936;2022-08-03T12:16:46;33.00;48.50
47961;DHT22;33721;48.852;9.936;2022-08-03T12:19:12;33.30;47.60
47961;DHT22;33721;48.852;9.936;2022-08-03T12:21:48;33.60;47.80
47961;DHT22;33721;48.852;9.936;2022-08-03T12:24:15;34.00;47.60
47961;DHT22;33721;48.852;9.936;2022-08-03T12:26:47;33.90;46.00
47961;DHT22;33721;48.852;9.936;2022-08-03T12:29:20;33.70;46.10
47961;DHT22;33721;48.852;9.936;2022-08-03T12:31:46;33.40;47.20
47961;DHT22;33721;48.852;9.936;2022-08-03T12:34:11;33.40;48.50
47961;DHT22;33721;48.852;9.936;2022-08-03T12:36:52;33.70;48.00
47961;DHT22;33721;48.852;9.936;2022-08-03T12:39:23;33.90;46.40
47961;DHT22;33721;48.852;9.936;2022-08-03T12:41:52;33.70;45.40
47961;DHT22;33721;48.852;9.936;2022-08-03T12:44:29;33.80;47.00
47961;DHT22;33721;48.852;9.936;2022-08-03T12:47:00;34.00;45.60
47961;DHT22;33721;48.852;9.936;2022-08-03T12:49:26;34.20;47.20
47961;DHT22;33721;48.852;9.936;2022-08-03T12:54:19;34.40;45.10
47961;DHT22;33721;48.852;9.936;2022-08-03T13:01:56;34.30;45.90
47961;DHT22;33721;48.852;9.936;2022-08-03T13:04:29;34.40;44.70
47961;DHT22;33721;48.852;9.936;2022-08-03T13:06:57;34.20;45.20
47961;DHT22;33721;48.852;9.936;2022-08-03T13:09:23;34.00;42.80
47961;DHT22;33721;48.852;9.936;2022-08-03T13:12:14;34.00;44.60
47961;DHT22;33721;48.852;9.936;2022-08-03T13:14:41;33.70;44.10
47961;DHT22;33721;48.852;9.936;2022-08-03T13:17:07;33.50;44.90
47961;DHT22;33721;48.852;9.936;2022-08-03T13:19:34;33.40;45.80
47961;DHT22;33721;48.852;9.936;2022-08-03T13:22:09;33.10;45.00
47961;DHT22;33721;48.852;9.936;2022-08-03T13:24:35;32.90;46.20
47961;DHT22;33721;48.852;9.936;2022-08-03T13:27:01;33.10;45.80
47961;DHT22;33721;48.852;9.936;2022-08-03T13:29:29;33.10;48.40
47961;DHT22;33721;48.852;9.936;2022-08-03T13:31:55;33.30;44.90
47961;DHT22;33721;48.852;9.936;2022-08-03T13:34:20;33.10;46.60
47961;DHT22;33721;48.852;9.936;2022-08-03T13:36:46;33.10;45.60
47961;DHT22;33721;48.852;9.936;2022-08-03T13:39:12;33.30;45.60
47961;DHT22;33721;48.852;9.936;2022-08-03T13:41:37;33.40;46.10
47961;DHT22;33721;48.852;9.936;2022-08-03T13:44:03;33.60;43.80
47961;DHT22;33721;48.852;9.936;2022-08-03T13:46:29;33.30;44.20
47961;DHT22;33721;48.852;9.936;2022-08-03T13:48:54;33.20;44.30
47961;DHT22;33721;48.852;9.936;2022-08-03T13:51:20;33.20;46.00
47961;DHT22;33721;48.852;9.936;2022-08-03T13:53:46;33.40;45.70
47961;DHT22;33721;48.852;9.936;2022-08-03T13:56:11;33.40;45.10
47961;DHT22;33721;48.852;9.936;2022-08-03T13:58:37;33.60;46.00
47961;DHT22;33721;48.852;9.936;2022-08-03T14:01:02;33.70;44.40
47961;DHT22;33721;48.852;9.936;2022-08-03T14:03:28;33.80;44.80
47961;DHT22;33721;48.852;9.936;2022-08-03T14:05:54;34.00;44.30
47961;DHT22;33721;48.852;9.936;2022-08-03T14:08:19;34.00;43.00
47961;DHT22;33721;48.852;9.936;2022-08-03T14:10:45;34.00;42.60
47961;DHT22;33721;48.852;9.936;2022-08-03T14:13:11;33.80;43.10
47961;DHT22;33721;48.852;9.936;2022-08-03T14:15:39;33.80;45.00
47961;DHT22;33721;48.852;9.936;2022-08-03T14:18:08;33.90;46.10
47961;DHT22;33721;48.852;9.936;2022-08-03T14:20:35;34.10;44.00
47961;DHT22;33721;48.852;9.936;2022-08-03T14:23:01;33.90;44.80
47961;DHT22;33721;48.852;9.936;2022-08-03T14:25:27;33.70;43.30
47961;DHT22;33721;48.852;9.936;2022-08-03T14:27:52;33.80;45.70
47961;DHT22;33721;48.852;9.936;2022-08-03T14:30:18;34.00;44.20
47961;DHT22;33721;48.852;9.936;2022-08-03T14:32:44;34.10;43.00
47961;DHT22;33721;48.852;9.936;2022-08-03T14:35:10;34.00;45.10
47961;DHT22;33721;48.852;9.936;2022-08-03T14:37:36;33.90;44.10
47961;DHT22;33721;48.852;9.936;2022-08-03T14:40:03;33.70;44.00
47961;DHT22;33721;48.852;9.936;2022-08-03T14:42:29;33.30;45.80
47961;DHT22;33721;48.852;9.936;2022-08-03T14:44:54;33.20;45.80
47961;DHT22;33721;48.852;9.936;2022-08-03T14:47:20;33.00;45.80
47961;DHT22;33721;48.852;9.936;2022-08-03T14:49:46;33.00;44.90
47961;DHT22;33721;48.852;9.936;2022-08-03T14:52:11;33.10;44.00
47961;DHT22;33721;48.852;9.936;2022-08-03T14:54:37;33.10;45.00
47961;DHT22;33721;48.852;9.936;2022-08-03T14:57:03;33.10;44.70
47961;DHT22;33721;48.852;9.936;2022-08-03T14:59:29;33.00;44.80
47961;DHT22;33721;48.852;9.936;2022-08-03T15:01:54;32.90;45.10
47961;DHT22;33721;48.852;9.936;2022-08-03T15:04:20;33.00;43.90
47961;DHT22;33721;48.852;9.936;2022-08-03T15:06:46;32.80;44.00
47961;DHT22;33721;48.852;9.936;2022-08-03T15:09:11;32.70;44.70
47961;DHT22;33721;48.852;9.936;2022-08-03T15:11:37;32.70;46.60
47961;DHT22;33721;48.852;9.936;2022-08-03T15:14:03;32.60;44.70
47961;DHT22;33721;48.852;9.936;2022-08-03T15:16:29;32.40;44.70
47961;DHT22;33721;48.852;9.936;2022-08-03T15:18:54;32.40;45.30
47961;DHT22;33721;48.852;9.936;2022-08-03T15:21:20;32.50;46.50
47961;DHT22;33721;48.852;9.936;2022-08-03T15:23:46;32.50;44.40
47961;DHT22;33721;48.852;9.936;2022-08-03T15:26:11;32.50;44.30
47961;DHT22;33721;48.852;9.936;2022-08-03T15:28:37;32.60;44.90
47961;DHT22;33721;48.852;9.936;2022-08-03T15:31:03;32.70;45.20
47961;DHT22;33721;48.852;9.936;2022-08-03T15:33:29;32.70;44.90
47961;DHT22;33721;48.852;9.936;2022-08-03T15:35:55;32.70;43.90
47961;DHT22;33721;48.852;9.936;2022-08-03T15:38:21;32.60;43.60
47961;DHT22;33721;48.852;9.936;2022-08-03T15:40:49;32.30;43.80
47961;DHT22;33721;48.852;9.936;2022-08-03T15:43:15;32.30;46.10
47961;DHT22;33721;48.852;9.936;2022-08-03T15:45:40;32.30;45.60
47961;DHT22;33721;48.852;9.936;2022-08-03T15:48:09;32.20;44.40
47961;DHT22;33721;48.852;9.936;2022-08-03T15:50:36;32.20;44.90
47961;DHT22;33721;48.852;9.936;2022-08-03T15:53:02;32.20;45.30
47961;DHT22;33721;48.852;9.936;2022-08-03T15:55:28;32.20;45.30
47961;DHT22;33721;48.852;9.936;2022-08-03T15:57:53;32.20;46.10
47961;DHT22;33721;48.852;9.936;2022-08-03T16:00:19;32.10;44.90
47961;DHT22;33721;48.852;9.936;2022-08-03T16:02:45;32.00;45.60
47961;DHT22;33721;48.852;9.936;2022-08-03T16:05:11;31.90;45.50
47961;DHT22;33721;48.852;9.936;2022-08-03T16:07:36;31.90;46.30
47961;DHT22;33721;48.852;9.936;2022-08-03T16:10:12;31.90;45.90
47961;DHT22;33721;48.852;9.936;2022-08-03T16:12:39;31.90;45.40
47961;DHT22;33721;48.852;9.936;2022-08-03T16:15:05;31.80;46.10
47961;DHT22;33721;48.852;9.936;2022-08-03T16:17:32;31.80;46.00
47961;DHT22;33721;48.852;9.936;2022-08-03T16:19:57;31.70;47.40
47961;DHT22;33721;48.852;9.936;2022-08-03T16:22:24;31.70;47.90